Time;durP1;ratioP1;P1;durP2;ratioP2;P2;SDS_P1;SDS_P2;PMS_P1;PMS_P2;Temp;Humidity;BMP_temperature;BMP_pressure;BME280_temperature;BME280_humidity;BME280_pressure;Samples;Min_cycle;Max_cycle;Signal;HPM_P1;HPM_P2
2023/07/22 00:00:14;;;;;;;2.08;1.88;;;;;;;;;;5002398;28;20042;-75
2023/07/22 00:02:40;;;;;;;5.18;2.25;;;;;;;;;;5015207;28;21135;-75
2023/07/22 00:05:06;;;;;;;2.10;1.90;;;;;;;;;;5000990;28;20052;-74
2023/07/22 00:07:31;;;;;;;2.55;2.13;;;;;;;;;;4998705;28;20100;-74
2023/07/22 00:09:57;;;;;;;5.72;2.30;;;;;;;;;;4999819;28;20419;-74
2023/07/22 00:12:25;;;;;;;3.17;1.88;;;;;;;;;;5001359;28;20050;-74
2023/07/22 00:14:53;;;;;;;3.97;2.13;;;;;;;;;;5000122;28;20069;-74
2023/07/22 00:17:19;;;;;;;4.63;2.20;;;;;;;;;;4998576;28;20490;-75
2023/07/22 00:19:44;;;;;;;6.18;2.20;;;;;;;;;;5005992;28;20056;-75
2023/07/22 00:22:09;;;;;;;3.15;2.00;;;;;;;;;;4998181;28;20376;-75
2023/07/22 00:24:35;;;;;;;7.13;2.15;;;;;;;;;;5005784;28;20045;-75
2023/07/22 00:27:00;;;;;;;5.32;2.10;;;;;;;;;;4998953;28;20072;-75
2023/07/22 00:29:26;;;;;;;3.70;1.83;;;;;;;;;;4997961;28;20053;-75
2023/07/22 00:31:51;;;;;;;2.53;2.05;;;;;;;;;;4999959;28;20092;-75
2023/07/22 00:34:17;;;;;;;2.13;1.92;;;;;;;;;;4999255;28;20041;-75
2023/07/22 00:36:44;;;;;;;3.25;1.90;;;;;;;;;;5000392;28;20172;-75
2023/07/22 00:39:09;;;;;;;2.45;2.00;;;;;;;;;;4998970;28;20410;-75
2023/07/22 00:41:34;;;;;;;2.80;2.00;;;;;;;;;;5001128;28;20053;-74
2023/07/22 00:44:00;;;;;;;2.70;1.83;;;;;;;;;;4999598;28;20051;-75
2023/07/22 00:46:25;;;;;;;2.83;1.75;;;;;;;;;;4998672;28;20037;-75
2023/07/22 00:48:52;;;;;;;2.40;1.88;;;;;;;;;;5005585;28;20049;-75
2023/07/22 00:51:19;;;;;;;2.63;1.92;;;;;;;;;;4999856;28;20057;-76
2023/07/22 00:53:44;;;;;;;3.35;2.22;;;;;;;;;;4999498;28;20076;-74
2023/07/22 00:56:09;;;;;;;2.25;2.05;;;;;;;;;;5005213;28;20133;-75
2023/07/22 00:58:35;;;;;;;2.33;2.13;;;;;;;;;;5006248;28;20144;-75
2023/07/22 01:01:00;;;;;;;2.42;2.22;;;;;;;;;;5000347;28;20052;-75
2023/07/22 01:03:26;;;;;;;2.28;2.03;;;;;;;;;;4998742;28;20050;-75
2023/07/22 01:05:53;;;;;;;3.53;2.55;;;;;;;;;;4998588;28;20041;-75
2023/07/22 01:08:18;;;;;;;2.80;2.30;;;;;;;;;;5000812;28;20192;-75
2023/07/22 01:10:44;;;;;;;2.42;2.17;;;;;;;;;;5005857;28;20554;-75
2023/07/22 01:13:09;;;;;;;5.82;1.80;;;;;;;;;;4999024;28;20053;-76
2023/07/22 01:15:37;;;;;;;3.85;2.38;;;;;;;;;;5015190;28;20050;-75
2023/07/22 01:18:03;;;;;;;3.75;2.00;;;;;;;;;;4999902;28;20034;-75
2023/07/22 01:20:29;;;;;;;4.50;2.25;;;;;;;;;;5002589;28;20046;-75
2023/07/22 01:22:55;;;;;;;4.15;2.03;;;;;;;;;;4999750;28;20046;-75
2023/07/22 01:25:21;;;;;;;2.92;1.90;;;;;;;;;;4997517;28;20049;-75
2023/07/22 01:27:48;;;;;;;3.83;2.10;;;;;;;;;;4998072;28;20050;-75
2023/07/22 01:30:14;;;;;;;3.00;2.33;;;;;;;;;;4998379;28;20042;-75
2023/07/22 01:32:40;;;;;;;2.88;2.10;;;;;;;;;;4997304;28;20131;-75
2023/07/22 01:35:07;;;;;;;5.40;2.13;;;;;;;;;;4998471;28;20069;-75
2023/07/22 01:37:33;;;;;;;8.48;2.38;;;;;;;;;;4998733;28;20120;-75
2023/07/22 01:39:59;;;;;;;4.40;2.30;;;;;;;;;;5003121;28;20042;-75
2023/07/22 01:42:24;;;;;;;15.90;2.42;;;;;;;;;;4999972;28;20042;-75
2023/07/22 01:44:50;;;;;;;2.47;2.28;;;;;;;;;;4999574;28;20054;-75
2023/07/22 01:47:16;;;;;;;9.25;3.08;;;;;;;;;;4999826;28;20080;-75
2023/07/22 01:49:45;;;;;;;4.32;2.80;;;;;;;;;;4996913;28;20062;-75
2023/07/22 01:52:10;;;;;;;5.35;2.40;;;;;;;;;;4995851;28;20045;-75
2023/07/22 01:54:36;;;;;;;4.15;2.50;;;;;;;;;;5000630;28;20046;-76
2023/07/22 01:57:01;;;;;;;4.10;2.40;;;;;;;;;;5001801;28;20038;-75
2023/07/22 01:59:27;;;;;;;3.38;2.47;;;;;;;;;;5001023;28;20046;-76
2023/07/22 02:01:53;;;;;;;3.35;2.55;;;;;;;;;;5001037;28;20042;-75
2023/07/22 02:04:18;;;;;;;3.63;2.63;;;;;;;;;;5007007;28;20038;-76
2023/07/22 02:06:44;;;;;;;3.05;2.60;;;;;;;;;;5009029;28;20092;-75
2023/07/22 02:09:13;;;;;;;3.25;2.28;;;;;;;;;;5013063;28;20088;-75
2023/07/22 02:11:38;;;;;;;2.95;2.10;;;;;;;;;;5011054;28;20057;-75
2023/07/22 02:14:06;;;;;;;5.53;2.30;;;;;;;;;;5011345;28;20041;-75
2023/07/22 02:16:39;;;;;;;7.82;2.42;;;;;;;;;;5011375;28;20495;-75
2023/07/22 02:19:05;;;;;;;3.20;2.33;;;;;;;;;;5006692;28;20045;-75
2023/07/22 02:21:38;;;;;;;7.45;2.78;;;;;;;;;;5006946;28;20407;-75
2023/07/22 02:24:04;;;;;;;2.60;2.40;;;;;;;;;;5008300;28;20041;-75
2023/07/22 02:26:29;;;;;;;6.18;2.95;;;;;;;;;;5006620;28;20065;-75
2023/07/22 02:28:55;;;;;;;7.00;2.55;;;;;;;;;;5003491;28;20052;-75
2023/07/22 02:31:22;;;;;;;2.78;2.28;;;;;;;;;;5001733;28;20038;-75
2023/07/22 02:33:47;;;;;;;2.50;2.30;;;;;;;;;;5002250;28;20050;-75
2023/07/22 02:36:12;;;;;;;2.75;1.90;;;;;;;;;;5007510;28;20561;-75
2023/07/22 02:38:38;;;;;;;2.75;2.42;;;;;;;;;;4999898;28;20046;-75
2023/07/22 02:41:07;;;;;;;3.35;2.10;;;;;;;;;;5002196;28;20571;-75
2023/07/22 02:43:36;;;;;;;3.58;2.35;;;;;;;;;;5000330;28;20034;-75
2023/07/22 02:46:03;;;;;;;3.33;2.40;;;;;;;;;;5007252;28;20392;-75
2023/07/22 02:48:33;;;;;;;3.00;2.42;;;;;;;;;;5000444;28;20049;-75
2023/07/22 02:51:04;;;;;;;3.35;2.40;;;;;;;;;;5016305;28;20517;-75
2023/07/22 02:53:31;;;;;;;4.22;2.17;;;;;;;;;;4987126;28;21118;-75
2023/07/22 02:55:56;;;;;;;4.00;2.45;;;;;;;;;;5002006;28;20167;-74
2023/07/22 02:58:21;;;;;;;4.10;2.58;;;;;;;;;;5002756;28;20495;-74
2023/07/22 03:00:47;;;;;;;3.10;2.38;;;;;;;;;;5001682;28;20045;-75
2023/07/22 03:03:12;;;;;;;3.30;2.30;;;;;;;;;;5000544;28;20052;-75
2023/07/22 03:05:38;;;;;;;1.85;1.70;;;;;;;;;;4999262;28;21534;-74
2023/07/22 03:08:03;;;;;;;2.63;2.08;;;;;;;;;;5003243;28;20125;-75
2023/07/22 03:10:29;;;;;;;4.15;2.17;;;;;;;;;;5004186;28;20369;-74
2023/07/22 03:12:56;;;;;;;3.10;2.40;;;;;;;;;;5001312;28;20526;-75
2023/07/22 03:15:22;;;;;;;5.18;2.13;;;;;;;;;;5006478;28;20045;-74
2023/07/22 03:17:48;;;;;;;10.20;2.53;;;;;;;;;;5000251;28;20041;-74
2023/07/22 03:20:14;;;;;;;3.75;2.30;;;;;;;;;;5001748;28;20048;-75
2023/07/22 03:22:41;;;;;;;2.72;2.53;;;;;;;;;;5005062;28;20152;-75
2023/07/22 03:25:10;;;;;;;3.47;2.40;;;;;;;;;;4984286;28;20042;-75
2023/07/22 03:27:36;;;;;;;3.03;2.60;;;;;;;;;;5015074;28;20648;-75
2023/07/22 03:30:03;;;;;;;2.75;2.55;;;;;;;;;;5007568;28;20736;-74
2023/07/22 03:32:29;;;;;;;6.03;2.28;;;;;;;;;;5009132;28;20060;-74
2023/07/22 03:34:54;;;;;;;4.72;2.42;;;;;;;;;;4998699;28;20200;-74
2023/07/22 03:37:20;;;;;;;4.07;2.50;;;;;;;;;;4999246;28;20045;-75
2023/07/22 03:39:45;;;;;;;5.13;3.50;;;;;;;;;;5000039;28;20172;-75
2023/07/22 03:42:11;;;;;;;4.28;2.38;;;;;;;;;;5008399;28;20406;-73
2023/07/22 03:44:37;;;;;;;6.10;3.00;;;;;;;;;;5001764;28;20796;-72
2023/07/22 03:47:03;;;;;;;6.40;2.75;;;;;;;;;;5001227;28;20498;-73
2023/07/22 03:49:28;;;;;;;4.57;2.83;;;;;;;;;;5000528;28;20053;-73
2023/07/22 03:51:53;;;;;;;4.50;3.10;;;;;;;;;;4998249;28;20256;-73
2023/07/22 03:54:19;;;;;;;12.82;3.20;;;;;;;;;;4999551;28;20045;-73
2023/07/22 03:56:44;;;;;;;4.72;3.25;;;;;;;;;;5004170;28;20110;-76
2023/07/22 03:59:10;;;;;;;4.65;3.20;;;;;;;;;;5007891;28;20049;-76
2023/07/22 04:01:35;;;;;;;4.13;2.95;;;;;;;;;;5002708;28;20041;-76
2023/07/22 04:04:01;;;;;;;3.25;2.95;;;;;;;;;;4994300;28;20049;-76
2023/07/22 04:06:26;;;;;;;5.90;2.97;;;;;;;;;;5004810;28;20084;-76
2023/07/22 04:08:51;;;;;;;3.20;2.85;;;;;;;;;;5005095;28;20125;-76
2023/07/22 04:11:17;;;;;;;4.75;3.50;;;;;;;;;;5008712;28;20042;-76
2023/07/22 04:13:42;;;;;;;5.40;2.88;;;;;;;;;;5005754;28;20111;-76
2023/07/22 04:16:08;;;;;;;6.70;2.97;;;;;;;;;;4999240;28;20053;-76
2023/07/22 04:18:34;;;;;;;3.30;3.00;;;;;;;;;;5012471;28;20082;-76
2023/07/22 04:21:00;;;;;;;5.28;2.90;;;;;;;;;;5001474;28;20446;-76
2023/07/22 04:23:27;;;;;;;6.60;3.50;;;;;;;;;;5003946;28;20041;-76
2023/07/22 04:25:52;;;;;;;3.78;3.00;;;;;;;;;;5004501;28;20065;-76
2023/07/22 04:28:18;;;;;;;5.07;3.20;;;;;;;;;;5008177;28;20600;-75
2023/07/22 04:30:55;;;;;;;6.30;3.22;;;;;;;;;;5004298;28;20042;-74
2023/07/22 04:33:21;;;;;;;4.32;2.90;;;;;;;;;;5002915;28;20117;-73
2023/07/22 04:35:46;;;;;;;4.57;3.00;;;;;;;;;;5000690;28;20562;-73
2023/07/22 04:38:12;;;;;;;4.85;2.78;;;;;;;;;;4999663;28;20052;-73
2023/07/22 04:40:38;;;;;;;7.15;3.08;;;;;;;;;;5001128;28;20052;-73
2023/07/22 04:43:03;;;;;;;6.93;3.22;;;;;;;;;;5006384;28;21112;-73
2023/07/22 04:45:28;;;;;;;5.60;3.15;;;;;;;;;;4999692;28;20042;-73
2023/07/22 04:47:54;;;;;;;7.18;2.92;;;;;;;;;;5000164;28;20149;-72
2023/07/22 04:50:19;;;;;;;7.53;2.85;;;;;;;;;;4999646;28;20046;-73
2023/07/22 04:52:46;;;;;;;6.00;3.08;;;;;;;;;;5000695;28;20061;-73
2023/07/22 04:55:13;;;;;;;3.42;2.95;;;;;;;;;;5006575;28;20044;-73
2023/07/22 04:57:40;;;;;;;3.55;3.20;;;;;;;;;;4998012;28;20053;-73
2023/07/22 05:00:09;;;;;;;4.35;3.22;;;;;;;;;;5000382;28;20045;-74
2023/07/22 05:02:34;;;;;;;5.35;3.15;;;;;;;;;;4998795;28;20053;-73
2023/07/22 05:05:00;;;;;;;3.88;2.83;;;;;;;;;;5006651;28;20042;-73
2023/07/22 05:07:26;;;;;;;5.97;2.72;;;;;;;;;;4999487;28;20050;-73
2023/07/22 05:09:51;;;;;;;6.75;2.92;;;;;;;;;;4999747;28;20045;-73
2023/07/22 05:12:17;;;;;;;5.05;2.45;;;;;;;;;;5003197;28;20096;-74
2023/07/22 05:14:45;;;;;;;5.03;2.40;;;;;;;;;;4999712;28;20061;-73
2023/07/22 05:17:11;;;;;;;7.70;2.60;;;;;;;;;;4999712;28;20060;-74
2023/07/22 05:19:36;;;;;;;3.30;2.80;;;;;;;;;;4997953;28;20045;-73
2023/07/22 05:22:02;;;;;;;3.92;2.80;;;;;;;;;;4999855;28;20041;-73
2023/07/22 05:24:27;;;;;;;3.53;2.85;;;;;;;;;;4999480;28;20052;-73
2023/07/22 05:26:53;;;;;;;7.60;3.00;;;;;;;;;;5000511;28;20045;-75
2023/07/22 05:29:19;;;;;;;2.97;2.45;;;;;;;;;;5006313;28;20100;-75
2023/07/22 05:31:45;;;;;;;3.30;2.58;;;;;;;;;;5005229;28;20049;-74
2023/07/22 05:34:10;;;;;;;3.15;2.47;;;;;;;;;;5002768;28;20054;-74
2023/07/22 05:36:36;;;;;;;6.85;2.67;;;;;;;;;;5004605;28;20157;-74
2023/07/22 05:39:01;;;;;;;2.60;2.35;;;;;;;;;;5010762;28;20145;-75
2023/07/22 05:41:27;;;;;;;5.95;2.40;;;;;;;;;;5009959;28;20177;-75
2023/07/22 05:43:52;;;;;;;3.25;2.50;;;;;;;;;;5004671;28;20518;-73
2023/07/22 05:46:18;;;;;;;2.35;2.15;;;;;;;;;;5007603;28;20053;-74
2023/07/22 05:48:43;;;;;;;2.95;2.22;;;;;;;;;;5006349;28;20052;-74
2023/07/22 05:51:09;;;;;;;2.55;2.10;;;;;;;;;;5008639;28;20037;-74
2023/07/22 05:53:35;;;;;;;3.85;2.17;;;;;;;;;;5008557;28;20045;-75
2023/07/22 05:56:00;;;;;;;2.38;2.17;;;;;;;;;;5008909;28;20071;-75
2023/07/22 05:58:26;;;;;;;2.10;1.90;;;;;;;;;;5007801;28;20223;-74
2023/07/22 06:00:53;;;;;;;2.97;1.92;;;;;;;;;;5011161;28;20425;-73
2023/07/22 06:03:19;;;;;;;2.20;2.00;;;;;;;;;;5004839;28;20038;-74
2023/07/22 06:05:45;;;;;;;7.03;2.88;;;;;;;;;;5008547;28;20500;-76
2023/07/22 06:08:11;;;;;;;2.75;2.00;;;;;;;;;;5005710;28;20057;-73
2023/07/22 06:10:39;;;;;;;4.00;2.22;;;;;;;;;;5007218;28;20046;-75
2023/07/22 06:13:04;;;;;;;3.15;2.30;;;;;;;;;;5008327;28;20107;-75
2023/07/22 06:15:30;;;;;;;2.42;1.90;;;;;;;;;;5000969;28;20879;-75
2023/07/22 06:17:55;;;;;;;7.28;2.22;;;;;;;;;;5002637;28;20603;-75
2023/07/22 06:20:21;;;;;;;2.00;1.80;;;;;;;;;;5007973;28;20041;-75
2023/07/22 06:22:47;;;;;;;5.03;2.20;;;;;;;;;;5012824;28;20042;-75
2023/07/22 06:25:12;;;;;;;2.55;2.35;;;;;;;;;;5002822;28;20908;-75
2023/07/22 06:27:38;;;;;;;2.90;2.00;;;;;;;;;;5011823;28;20048;-75
2023/07/22 06:30:04;;;;;;;3.35;2.10;;;;;;;;;;5008117;28;20095;-75
2023/07/22 06:32:30;;;;;;;2.75;1.75;;;;;;;;;;5002278;28;20053;-75
2023/07/22 06:34:56;;;;;;;2.90;2.10;;;;;;;;;;5004486;28;20042;-74
2023/07/22 06:37:23;;;;;;;2.88;2.10;;;;;;;;;;5006829;28;20054;-76
2023/07/22 06:39:49;;;;;;;3.33;1.90;;;;;;;;;;4998685;28;20108;-75
2023/07/22 06:42:14;;;;;;;3.63;2.20;;;;;;;;;;4999535;28;20049;-74
2023/07/22 06:44:40;;;;;;;4.75;2.00;;;;;;;;;;5005143;28;20046;-74
2023/07/22 06:47:05;;;;;;;4.82;2.17;;;;;;;;;;5001248;28;20056;-74
2023/07/22 06:49:31;;;;;;;3.08;2.00;;;;;;;;;;5011003;28;20045;-74
2023/07/22 06:51:56;;;;;;;5.18;2.20;;;;;;;;;;5001033;28;20052;-74
2023/07/22 06:54:22;;;;;;;2.90;1.80;;;;;;;;;;5008383;28;20128;-75
2023/07/22 06:56:47;;;;;;;2.72;1.85;;;;;;;;;;5001668;28;20558;-74
2023/07/22 06:59:13;;;;;;;3.15;2.08;;;;;;;;;;5000758;28;20046;-75
2023/07/22 07:01:38;;;;;;;4.53;2.08;;;;;;;;;;4999171;28;20049;-74
2023/07/22 07:04:04;;;;;;;4.53;2.22;;;;;;;;;;5009909;28;20064;-73
2023/07/22 07:06:29;;;;;;;2.88;2.10;;;;;;;;;;5001084;28;20045;-73
2023/07/22 07:08:55;;;;;;;3.38;2.28;;;;;;;;;;5008899;28;20049;-73
2023/07/22 07:11:20;;;;;;;2.42;2.17;;;;;;;;;;5007681;28;20064;-78
2023/07/22 07:13:46;;;;;;;2.95;2.15;;;;;;;;;;5003914;28;20414;-75
2023/07/22 07:16:26;;;;;;;3.05;2.30;;;;;;;;;;5001965;28;20763;-74
2023/07/22 07:18:52;;;;;;;3.58;2.13;;;;;;;;;;5001380;28;20041;-74
2023/07/22 07:21:18;;;;;;;4.55;2.13;;;;;;;;;;4999003;28;20157;-73
2023/07/22 07:23:44;;;;;;;3.45;2.25;;;;;;;;;;5001694;28;20118;-74
2023/07/22 07:26:10;;;;;;;4.18;2.47;;;;;;;;;;5009066;28;20558;-74
2023/07/22 07:28:35;;;;;;;3.25;2.13;;;;;;;;;;5007315;28;20737;-74
2023/07/22 07:31:01;;;;;;;3.65;1.65;;;;;;;;;;5001549;28;20038;-73
2023/07/22 07:33:26;;;;;;;4.47;2.63;;;;;;;;;;4999715;28;20042;-72
2023/07/22 07:35:52;;;;;;;2.72;2.00;;;;;;;;;;5004908;28;20138;-74
2023/07/22 07:38:17;;;;;;;4.00;2.20;;;;;;;;;;4999817;28;20038;-73
2023/07/22 07:40:43;;;;;;;2.47;2.08;;;;;;;;;;5000969;28;20042;-74
2023/07/22 07:43:08;;;;;;;3.50;2.40;;;;;;;;;;5002716;28;20053;-74
2023/07/22 07:45:38;;;;;;;2.20;1.98;;;;;;;;;;5008371;28;20096;-75
2023/07/22 07:48:04;;;;;;;8.27;2.33;;;;;;;;;;5008271;28;20573;-76
2023/07/22 07:50:30;;;;;;;5.05;2.15;;;;;;;;;;5007433;28;20494;-73
2023/07/22 07:52:55;;;;;;;2.58;2.05;;;;;;;;;;5007381;28;20046;-74
2023/07/22 07:55:20;;;;;;;4.30;2.50;;;;;;;;;;5008729;28;20733;-74
2023/07/22 07:57:46;;;;;;;2.55;1.90;;;;;;;;;;5005449;28;20037;-74
2023/07/22 08:00:12;;;;;;;4.43;2.22;;;;;;;;;;4999183;28;20883;-74
2023/07/22 08:02:37;;;;;;;3.03;2.00;;;;;;;;;;5000886;28;20466;-74
2023/07/22 08:05:03;;;;;;;2.85;1.90;;;;;;;;;;5001450;28;20050;-74
2023/07/22 08:07:28;;;;;;;4.80;1.67;;;;;;;;;;4996649;28;20074;-74
2023/07/22 08:09:54;;;;;;;2.35;1.70;;;;;;;;;;5001491;28;20132;-74
2023/07/22 08:12:19;;;;;;;1.95;1.50;;;;;;;;;;4997467;28;20079;-75
2023/07/22 08:14:45;;;;;;;2.83;2.22;;;;;;;;;;4999102;28;20049;-75
2023/07/22 08:17:10;;;;;;;3.92;1.80;;;;;;;;;;4999773;28;20041;-75
2023/07/22 08:19:36;;;;;;;2.17;1.70;;;;;;;;;;4999558;28;20098;-74
2023/07/22 08:22:01;;;;;;;1.33;1.08;;;;;;;;;;5007281;28;20060;-74
2023/07/22 08:24:27;;;;;;;1.45;1.35;;;;;;;;;;5001897;28;20156;-75
2023/07/22 08:26:52;;;;;;;1.40;1.30;;;;;;;;;;4999042;28;20054;-74
2023/07/22 08:29:17;;;;;;;3.65;1.48;;;;;;;;;;5028759;28;20127;-74
2023/07/22 08:31:43;;;;;;;1.60;1.45;;;;;;;;;;4999408;28;20065;-74
2023/07/22 08:34:08;;;;;;;2.08;1.42;;;;;;;;;;5011217;28;20064;-75
2023/07/22 08:36:35;;;;;;;4.18;1.17;;;;;;;;;;5008872;28;20426;-73
2023/07/22 08:39:01;;;;;;;1.60;1.30;;;;;;;;;;5004037;28;20037;-76
2023/07/22 08:41:27;;;;;;;2.28;1.23;;;;;;;;;;5001620;28;20053;-73
2023/07/22 08:43:54;;;;;;;2.35;1.10;;;;;;;;;;5006674;28;20108;-75
2023/07/22 08:46:23;;;;;;;1.60;1.20;;;;;;;;;;5006204;28;20509;-75
2023/07/22 08:48:53;;;;;;;1.23;1.08;;;;;;;;;;5004798;28;20418;-74
2023/07/22 08:51:19;;;;;;;1.40;1.27;;;;;;;;;;5003585;28;20053;-75
2023/07/22 08:53:46;;;;;;;3.65;1.30;;;;;;;;;;5003088;28;20407;-76
2023/07/22 08:56:12;;;;;;;2.95;1.60;;;;;;;;;;5009025;28;20565;-76
2023/07/22 08:58:38;;;;;;;2.88;1.52;;;;;;;;;;5007728;28;20042;-74
2023/07/22 09:01:05;;;;;;;2.28;0.95;;;;;;;;;;5012478;28;20041;-75
2023/07/22 09:03:31;;;;;;;1.42;0.93;;;;;;;;;;5009444;28;20065;-75
2023/07/22 09:05:57;;;;;;;2.38;1.20;;;;;;;;;;5027624;28;20487;-74
2023/07/22 09:08:24;;;;;;;1.42;1.00;;;;;;;;;;5010765;28;20406;-76
2023/07/22 09:10:49;;;;;;;4.53;1.00;;;;;;;;;;5014432;28;20080;-75
2023/07/22 09:13:17;;;;;;;1.35;0.85;;;;;;;;;;5006310;28;20410;-75
2023/07/22 09:15:43;;;;;;;1.13;1.02;;;;;;;;;;5007084;28;20054;-74
2023/07/22 09:18:09;;;;;;;1.45;1.00;;;;;;;;;;5003231;28;20042;-75
2023/07/22 09:20:34;;;;;;;1.23;1.13;;;;;;;;;;5006709;28;20636;-75
2023/07/22 09:23:00;;;;;;;1.23;0.98;;;;;;;;;;5004998;28;20060;-75
2023/07/22 09:25:28;;;;;;;0.88;0.88;;;;;;;;;;5006208;28;20453;-74
2023/07/22 09:27:57;;;;;;;1.05;0.95;;;;;;;;;;5007566;28;20104;-75
2023/07/22 09:30:28;;;;;;;1.20;1.10;;;;;;;;;;5008171;28;20152;-75
2023/07/22 09:32:56;;;;;;;0.98;0.93;;;;;;;;;;5008745;28;20419;-72
2023/07/22 09:35:22;;;;;;;1.35;1.00;;;;;;;;;;5004958;28;20053;-73
2023/07/22 09:37:48;;;;;;;1.10;1.00;;;;;;;;;;5006051;28;20046;-74
2023/07/22 09:40:14;;;;;;;2.22;1.25;;;;;;;;;;5003142;28;20041;-74
2023/07/22 09:42:40;;;;;;;1.60;1.20;;;;;;;;;;5004591;28;20050;-74
2023/07/22 09:45:06;;;;;;;1.23;1.00;;;;;;;;;;5008199;28;20088;-73
2023/07/22 09:47:43;;;;;;;2.13;1.15;;;;;;;;;;5025194;28;20048;-73
2023/07/22 09:50:16;;;;;;;2.88;1.48;;;;;;;;;;5004659;28;20227;-75
2023/07/22 09:52:45;;;;;;;1.48;1.33;;;;;;;;;;5003652;28;20046;-75
2023/07/22 09:55:12;;;;;;;2.00;1.10;;;;;;;;;;5006917;28;20068;-74
2023/07/22 09:57:44;;;;;;;1.42;1.33;;;;;;;;;;5008532;28;20173;-74
2023/07/22 10:00:11;;;;;;;1.33;1.23;;;;;;;;;;5002358;28;20046;-73
2023/07/22 10:02:43;;;;;;;4.43;1.30;;;;;;;;;;5003293;28;20054;-74
2023/07/22 10:05:13;;;;;;;4.28;1.20;;;;;;;;;;5001621;28;20037;-71
2023/07/22 10:07:44;;;;;;;4.73;1.43;;;;;;;;;;5003708;28;20406;-73
2023/07/22 10:10:10;;;;;;;;;;;;;;;;;;5006081;28;20050;-72
2023/07/22 10:12:36;;;;;;;1.83;1.20;;;;;;;;;;5009234;28;20028;-74
2023/07/22 10:15:02;;;;;;;0.95;0.85;;;;;;;;;;5007883;28;20160;-75
2023/07/22 10:17:29;;;;;;;4.15;1.00;;;;;;;;;;5000695;28;20107;-74
2023/07/22 10:19:55;;;;;;;1.05;1.00;;;;;;;;;;5002757;28;20061;-72
2023/07/22 10:22:21;;;;;;;2.00;1.00;;;;;;;;;;5013540;28;20041;-75
2023/07/22 10:24:48;;;;;;;4.88;1.15;;;;;;;;;;5007883;28;20089;-74
2023/07/22 10:27:16;;;;;;;2.42;0.98;;;;;;;;;;5010599;28;20051;-75
2023/07/22 10:29:42;;;;;;;1.05;0.98;;;;;;;;;;5008530;28;20722;-75
2023/07/22 10:32:08;;;;;;;1.80;1.13;;;;;;;;;;5000598;28;20046;-73
2023/07/22 10:34:33;;;;;;;1.35;1.13;;;;;;;;;;5002821;28;20087;-73
2023/07/22 10:36:59;;;;;;;1.35;0.93;;;;;;;;;;5006013;28;20046;-74
2023/07/22 10:39:26;;;;;;;3.42;1.00;;;;;;;;;;5006256;28;20048;-73
2023/07/22 10:42:00;;;;;;;0.90;0.90;;;;;;;;;;5014035;28;20598;-73
2023/07/22 10:44:26;;;;;;;1.75;1.20;;;;;;;;;;5023170;28;20034;-74
2023/07/22 10:46:58;;;;;;;1.13;0.85;;;;;;;;;;5010602;28;20056;-73
2023/07/22 10:49:41;;;;;;;0.90;0.90;;;;;;;;;;5009878;28;20240;-74
2023/07/22 10:52:07;;;;;;;1.30;1.20;;;;;;;;;;5010181;28;20050;-73
2023/07/22 10:54:36;;;;;;;1.55;1.08;;;;;;;;;;5005437;28;20065;-74
2023/07/22 10:57:26;;;;;;;1.00;1.00;;;;;;;;;;5001985;28;20419;-74
2023/07/22 10:59:52;;;;;;;1.20;1.10;;;;;;;;;;5023441;28;20492;-75
2023/07/22 11:02:28;;;;;;;1.40;1.30;;;;;;;;;;5009016;28;20092;-75
2023/07/22 11:05:02;;;;;;;0.98;0.98;;;;;;;;;;5005029;28;20421;-75
2023/07/22 11:07:31;;;;;;;0.95;0.90;;;;;;;;;;5004026;28;20057;-75
2023/07/22 11:09:57;;;;;;;1.83;1.15;;;;;;;;;;5000149;28;20470;-74
2023/07/22 11:12:25;;;;;;;1.33;1.02;;;;;;;;;;5003987;28;20050;-74
2023/07/22 11:14:52;;;;;;;1.40;1.10;;;;;;;;;;5007534;28;20046;-74
2023/07/22 11:17:29;;;;;;;1.35;1.20;;;;;;;;;;5009254;28;20038;-74
2023/07/22 11:19:55;;;;;;;1.20;1.10;;;;;;;;;;5005334;28;20085;-70
2023/07/22 11:22:21;;;;;;;1.00;1.00;;;;;;;;;;5006613;28;20136;-74
2023/07/22 11:24:47;;;;;;;1.20;1.10;;;;;;;;;;4998584;28;20161;-74
2023/07/22 11:27:12;;;;;;;1.20;1.10;;;;;;;;;;4998017;28;20042;-74
2023/07/22 11:29:38;;;;;;;2.20;1.20;;;;;;;;;;4995302;28;21131;-75
2023/07/22 11:32:04;;;;;;;1.58;1.20;;;;;;;;;;4997995;28;20180;-74
2023/07/22 11:34:29;;;;;;;1.75;1.20;;;;;;;;;;5010108;28;20115;-76
2023/07/22 11:36:56;;;;;;;1.20;1.10;;;;;;;;;;4998770;28;20203;-74
2023/07/22 11:39:26;;;;;;;1.60;1.08;;;;;;;;;;4997798;28;20041;-74
2023/07/22 11:41:57;;;;;;;2.10;1.00;;;;;;;;;;5012005;28;20056;-74
2023/07/22 11:44:27;;;;;;;1.77;1.17;;;;;;;;;;5004943;28;20037;-73
2023/07/22 11:46:58;;;;;;;1.08;1.00;;;;;;;;;;5000503;28;20056;-73
2023/07/22 11:49:31;;;;;;;1.92;0.95;;;;;;;;;;5000361;28;20057;-73
2023/07/22 11:52:09;;;;;;;1.98;1.10;;;;;;;;;;4998437;28;20137;-73
2023/07/22 11:54:38;;;;;;;1.73;1.00;;;;;;;;;;4999715;28;20042;-73
2023/07/22 11:57:18;;;;;;;0.90;0.90;;;;;;;;;;4999883;28;20045;-73
2023/07/22 11:59:55;;;;;;;1.00;1.00;;;;;;;;;;4996535;28;20570;-73
2023/07/22 12:02:23;;;;;;;1.30;0.95;;;;;;;;;;4999091;28;20046;-74
2023/07/22 12:05:05;;;;;;;3.13;1.00;;;;;;;;;;4997430;28;20416;-74
2023/07/22 12:07:32;;;;;;;1.20;1.00;;;;;;;;;;4996940;28;20399;-73
2023/07/22 12:10:00;;;;;;;1.75;1.13;;;;;;;;;;4999240;28;20054;-73
2023/07/22 12:12:46;;;;;;;1.20;1.10;;;;;;;;;;4997324;28;20141;-73
2023/07/22 12:15:16;;;;;;;1.85;1.00;;;;;;;;;;4998950;28;20042;-73
2023/07/22 12:17:52;;;;;;;1.30;1.20;;;;;;;;;;4996415;28;20057;-73
2023/07/22 12:20:18;;;;;;;1.20;1.10;;;;;;;;;;4999221;28;20046;-73
2023/07/22 12:22:44;;;;;;;3.83;1.20;;;;;;;;;;4996061;28;20084;-73
2023/07/22 12:25:10;;;;;;;1.20;1.10;;;;;;;;;;5007827;28;20074;-73
2023/07/22 12:27:37;;;;;;;0.95;0.93;;;;;;;;;;4997863;28;20041;-73
2023/07/22 12:30:03;;;;;;;1.35;0.95;;;;;;;;;;5005633;28;20058;-73
2023/07/22 12:32:28;;;;;;;1.58;1.20;;;;;;;;;;5011061;28;20057;-73
2023/07/22 12:34:54;;;;;;;1.10;1.00;;;;;;;;;;5003760;28;20107;-74
2023/07/22 12:37:19;;;;;;;2.22;1.15;;;;;;;;;;4997510;28;20046;-74
2023/07/22 12:39:44;;;;;;;1.42;1.10;;;;;;;;;;4999960;28;20060;-74
2023/07/22 12:42:10;;;;;;;1.63;0.95;;;;;;;;;;5002519;28;20084;-74
2023/07/22 12:44:36;;;;;;;3.28;1.20;;;;;;;;;;5000283;28;20042;-74
2023/07/22 12:47:02;;;;;;;3.63;1.30;;;;;;;;;;4998389;28;20053;-74
2023/07/22 12:49:27;;;;;;;1.55;1.30;;;;;;;;;;4996523;28;20088;-74
2023/07/22 12:51:53;;;;;;;1.00;1.00;;;;;;;;;;4998095;28;20050;-74
2023/07/22 12:54:18;;;;;;;1.73;1.23;;;;;;;;;;4998510;28;20081;-74
2023/07/22 12:56:43;;;;;;;1.30;1.20;;;;;;;;;;5003874;28;20105;-74
2023/07/22 12:59:09;;;;;;;3.25;1.20;;;;;;;;;;4996743;28;20034;-74
2023/07/22 13:01:38;;;;;;;4.60;1.10;;;;;;;;;;4996298;28;20048;-73
2023/07/22 13:04:04;;;;;;;1.33;1.23;;;;;;;;;;4997645;28;20081;-74
2023/07/22 13:06:30;;;;;;;2.83;1.40;;;;;;;;;;4998023;28;20073;-74
2023/07/22 13:08:55;;;;;;;1.65;1.23;;;;;;;;;;4995877;28;20131;-74
2023/07/22 13:11:21;;;;;;;1.48;1.20;;;;;;;;;;5001021;28;20045;-74
2023/07/22 13:13:46;;;;;;;1.90;1.10;;;;;;;;;;4996828;28;20410;-74
2023/07/22 13:16:11;;;;;;;1.70;1.20;;;;;;;;;;4998086;28;20383;-74
2023/07/22 13:18:37;;;;;;;1.20;1.10;;;;;;;;;;5004755;28;20049;-74
2023/07/22 13:21:02;;;;;;;3.88;1.30;;;;;;;;;;4997649;28;20128;-74
2023/07/22 13:23:28;;;;;;;1.23;1.00;;;;;;;;;;4998616;28;20099;-74
2023/07/22 13:25:53;;;;;;;2.03;1.20;;;;;;;;;;4998547;28;20046;-74
2023/07/22 13:28:18;;;;;;;1.85;1.10;;;;;;;;;;4997011;28;20561;-74
2023/07/22 13:30:44;;;;;;;3.22;1.20;;;;;;;;;;4996328;28;20499;-73
2023/07/22 13:33:09;;;;;;;2.05;1.23;;;;;;;;;;4996937;28;20133;-73
2023/07/22 13:35:35;;;;;;;1.63;1.23;;;;;;;;;;4996186;28;20045;-73
2023/07/22 13:38:00;;;;;;;3.17;1.30;;;;;;;;;;5001590;28;20083;-73
2023/07/22 13:40:26;;;;;;;1.10;1.00;;;;;;;;;;5002124;28;20156;-73
2023/07/22 13:42:51;;;;;;;1.40;1.30;;;;;;;;;;4997147;28;20050;-73
2023/07/22 13:45:17;;;;;;;1.00;0.90;;;;;;;;;;4998448;28;20099;-73
2023/07/22 13:47:42;;;;;;;1.85;1.20;;;;;;;;;;4997013;28;20042;-73
2023/07/22 13:50:08;;;;;;;1.10;1.00;;;;;;;;;;5003123;28;20418;-73
2023/07/22 13:52:33;;;;;;;1.20;1.10;;;;;;;;;;5000199;28;20718;-73
2023/07/22 13:54:59;;;;;;;2.35;1.20;;;;;;;;;;5000200;28;20049;-73
2023/07/22 13:57:24;;;;;;;2.05;1.40;;;;;;;;;;5000643;28;20061;-76
2023/07/22 13:59:50;;;;;;;4.13;1.40;;;;;;;;;;5000775;28;20053;-73
2023/07/22 14:02:15;;;;;;;1.20;1.13;;;;;;;;;;4999984;28;20076;-74
2023/07/22 14:04:40;;;;;;;1.42;1.05;;;;;;;;;;5000731;28;20089;-73
2023/07/22 14:07:06;;;;;;;1.20;1.13;;;;;;;;;;5000613;28;20125;-73
2023/07/22 14:09:31;;;;;;;1.40;1.30;;;;;;;;;;5000285;28;20050;-73
2023/07/22 14:11:57;;;;;;;1.73;1.50;;;;;;;;;;5002894;28;20054;-74
2023/07/22 14:14:28;;;;;;;1.17;0.95;;;;;;;;;;4999823;28;20112;-73
2023/07/22 14:16:56;;;;;;;5.55;1.40;;;;;;;;;;5000887;28;20103;-74
2023/07/22 14:19:23;;;;;;;1.45;1.23;;;;;;;;;;4999966;28;20100;-73
2023/07/22 14:21:49;;;;;;;1.17;1.08;;;;;;;;;;5000283;28;20080;-73
2023/07/22 14:24:14;;;;;;;1.45;1.25;;;;;;;;;;4998827;28;20054;-73
2023/07/22 14:26:40;;;;;;;1.92;1.38;;;;;;;;;;5001445;28;20623;-73
2023/07/22 14:29:05;;;;;;;1.63;1.30;;;;;;;;;;4999842;28;20521;-73
2023/07/22 14:31:30;;;;;;;2.88;1.13;;;;;;;;;;5006674;28;20199;-74
2023/07/22 14:33:56;;;;;;;1.85;1.00;;;;;;;;;;5008124;28;20053;-73
2023/07/22 14:36:22;;;;;;;1.13;1.05;;;;;;;;;;5004242;28;20507;-73
2023/07/22 14:38:47;;;;;;;1.38;1.15;;;;;;;;;;4998624;28;20045;-73